createdAt,value
2023-01-21T00:02:13.258Z,-0.74
2023-01-21T00:04:39.893Z,-1.38
2023-01-21T00:07:06.973Z,-1.13
2023-01-21T00:09:33.988Z,-0.86
2023-01-21T00:12:02.917Z,-0.70
2023-01-21T00:14:30.218Z,-0.96
2023-01-21T00:16:58.219Z,-0.80
2023-01-21T00:19:25.378Z,-0.73
2023-01-21T00:21:52.089Z,-0.80
2023-01-21T00:24:18.772Z,-1.27
2023-01-21T00:26:45.402Z,-1.40
2023-01-21T00:29:12.059Z,-1.74
2023-01-21T00:31:38.939Z,-1.59
2023-01-21T00:34:05.606Z,-1.33
2023-01-21T00:36:32.297Z,-1.52
2023-01-21T00:38:59.640Z,-1.63
2023-01-21T00:41:26.372Z,-1.42
2023-01-21T00:43:53.153Z,-1.41
2023-01-21T00:46:19.889Z,-1.21
2023-01-21T00:48:46.633Z,-1.37
2023-01-21T00:51:13.352Z,-1.28
2023-01-21T00:53:42.078Z,-1.34
2023-01-21T00:56:10.717Z,-1.09
2023-01-21T00:58:37.668Z,-1.30
2023-01-21T01:01:12.737Z,-1.40
2023-01-21T01:03:39.854Z,-0.94
2023-01-21T01:06:14.898Z,-1.09
2023-01-21T01:08:42.269Z,-0.86
2023-01-21T01:11:08.880Z,-1.39
2023-01-21T01:13:35.667Z,-1.14
2023-01-21T01:16:02.738Z,-1.35
2023-01-21T01:18:30.426Z,-1.46
2023-01-21T01:20:57.064Z,-1.34
2023-01-21T01:23:23.700Z,-1.20
2023-01-21T01:26:04.313Z,-1.44
2023-01-21T01:28:31.058Z,-1.41
2023-01-21T01:30:58.043Z,-1.19
2023-01-21T01:33:24.920Z,-1.68
2023-01-21T01:35:51.555Z,-1.38
2023-01-21T01:38:22.540Z,-1.58
2023-01-21T01:40:50.395Z,-1.78
2023-01-21T01:43:18.966Z,-1.82
2023-01-21T01:45:45.581Z,-1.79
2023-01-21T01:48:17.761Z,-1.80
2023-01-21T01:50:44.557Z,-1.70
2023-01-21T01:53:11.197Z,-1.74
2023-01-21T01:55:37.837Z,-1.80
2023-01-21T01:58:06.760Z,-1.79
2023-01-21T02:00:33.363Z,-1.70
2023-01-21T02:03:18.662Z,-1.78
2023-01-21T02:05:45.324Z,-1.66
2023-01-21T02:08:12.093Z,-1.83
2023-01-21T02:10:38.734Z,-1.73
2023-01-21T02:13:05.340Z,-1.78
2023-01-21T02:15:55.370Z,-1.86
2023-01-21T02:18:35.325Z,-1.89
2023-01-21T02:21:26.475Z,-1.99
2023-01-21T02:24:06.907Z,-2.10
2023-01-21T02:26:51.333Z,-2.06
2023-01-21T02:29:26.798Z,-2.13
2023-01-21T02:32:19.675Z,-2.15
2023-01-21T02:34:48.807Z,-2.02
2023-01-21T02:38:07.011Z,-1.93
2023-01-21T02:40:38.354Z,-2.00
2023-01-21T02:43:25.089Z,-2.04
2023-01-21T02:46:03.844Z,-2.09
2023-01-21T02:48:40.756Z,-2.17
2023-01-21T02:51:07.385Z,-2.06
2023-01-21T02:53:35.628Z,-2.21
2023-01-21T02:56:23.619Z,-2.01
2023-01-21T02:58:53.998Z,-1.93
2023-01-21T03:01:54.578Z,-1.80
2023-01-21T03:04:46.250Z,-1.93
2023-01-21T03:07:18.902Z,-1.81
2023-01-21T03:09:45.496Z,-2.23
2023-01-21T03:16:47.229Z,-1.98
2023-01-21T03:19:13.896Z,-2.04
2023-01-21T03:21:40.503Z,-2.01
2023-01-21T03:24:07.135Z,-2.20
2023-01-21T03:26:36.727Z,-2.33
2023-01-21T03:29:06.346Z,-2.21
2023-01-21T03:31:33.878Z,-2.40
2023-01-21T03:34:02.363Z,-2.36
2023-01-21T03:36:40.960Z,-2.24
2023-01-21T03:39:13.217Z,-2.26
2023-01-21T03:41:39.816Z,-2.27
2023-01-21T03:44:06.459Z,-2.25
2023-01-21T03:46:41.516Z,-2.25
2023-01-21T03:49:20.802Z,-2.11
2023-01-21T03:51:49.953Z,-2.16
2023-01-21T03:54:16.524Z,-2.27
2023-01-21T03:56:43.131Z,-2.33
2023-01-21T03:59:09.851Z,-2.27
2023-01-21T04:01:36.463Z,-2.13
2023-01-21T04:04:03.074Z,-2.23
2023-01-21T04:06:29.663Z,-2.31
2023-01-21T04:08:56.299Z,-2.24
2023-01-21T04:11:22.897Z,-2.24
2023-01-21T04:13:49.538Z,-2.23
2023-01-21T04:16:16.157Z,-2.17
2023-01-21T04:18:42.766Z,-2.32
2023-01-21T04:21:09.357Z,-2.47
2023-01-21T04:23:35.966Z,-2.37
2023-01-21T04:26:02.544Z,-2.45
2023-01-21T04:28:29.153Z,-2.30
2023-01-21T04:30:55.773Z,-2.34
2023-01-21T04:33:22.575Z,-2.42
2023-01-21T04:35:49.160Z,-2.44
2023-01-21T04:38:15.874Z,-2.44
2023-01-21T04:40:42.601Z,-2.44
2023-01-21T04:43:09.238Z,-2.48
2023-01-21T04:45:35.885Z,-2.49
2023-01-21T04:48:02.552Z,-2.52
2023-01-21T04:50:29.147Z,-2.57
2023-01-21T04:52:55.752Z,-2.35
2023-01-21T04:55:24.208Z,-2.68
2023-01-21T04:57:52.036Z,-2.57
2023-01-21T05:00:19.024Z,-2.47
2023-01-21T05:02:45.792Z,-2.40
2023-01-21T05:05:12.374Z,-2.58
2023-01-21T05:07:38.998Z,-2.67
2023-01-21T05:10:05.785Z,-2.66
2023-01-21T05:12:32.429Z,-2.70
2023-01-21T05:14:59.056Z,-2.67
2023-01-21T05:17:25.743Z,-2.67
2023-01-21T05:19:52.296Z,-2.62
2023-01-21T05:22:18.901Z,-2.30
2023-01-21T05:24:45.486Z,-2.64
2023-01-21T05:27:12.100Z,-2.60
2023-01-21T05:29:38.661Z,-2.79
2023-01-21T05:32:05.402Z,-2.64
2023-01-21T05:34:32.065Z,-2.71
2023-01-21T05:36:58.663Z,-2.76
2023-01-21T05:39:25.404Z,-2.91
2023-01-21T05:41:52.021Z,-2.88
2023-01-21T05:44:18.625Z,-2.91
2023-01-21T05:46:45.268Z,-2.94
2023-01-21T05:49:11.880Z,-2.88
2023-01-21T05:51:38.486Z,-2.94
2023-01-21T05:54:05.115Z,-2.91
2023-01-21T05:56:31.796Z,-2.93
2023-01-21T05:58:58.388Z,-2.91
2023-01-21T06:01:25.045Z,-3.03
2023-01-21T06:03:51.706Z,-2.98
2023-01-21T06:06:18.367Z,-2.96
2023-01-21T06:08:44.962Z,-3.03
2023-01-21T06:11:11.552Z,-3.14
2023-01-21T06:13:38.147Z,-3.05
2023-01-21T06:16:05.071Z,-3.14
2023-01-21T06:18:31.677Z,-3.26
2023-01-21T06:21:01.334Z,-3.22
2023-01-21T06:23:27.992Z,-3.29
2023-01-21T06:25:58.553Z,-3.26
2023-01-21T06:28:25.175Z,-3.31
2023-01-21T06:30:51.835Z,-3.35
2023-01-21T06:33:18.523Z,-3.33
2023-01-21T06:35:45.121Z,-3.34
2023-01-21T06:38:11.735Z,-3.21
2023-01-21T06:40:38.427Z,-3.27
2023-01-21T06:43:05.051Z,-3.27
2023-01-21T06:45:31.733Z,-3.33
2023-01-21T06:47:58.349Z,-3.37
2023-01-21T06:50:25.027Z,-3.28
2023-01-21T06:52:51.632Z,-3.28
2023-01-21T06:55:18.257Z,-3.32
2023-01-21T06:57:44.935Z,-3.28
2023-01-21T07:00:12.258Z,-3.31
2023-01-21T07:02:42.129Z,-3.29
2023-01-21T07:05:08.994Z,-3.23
2023-01-21T07:07:35.970Z,-3.21
2023-01-21T07:10:02.630Z,-3.28
2023-01-21T07:12:30.339Z,-3.22
2023-01-21T07:14:56.941Z,-3.27
2023-01-21T07:17:23.700Z,-3.20
2023-01-21T07:19:50.321Z,-3.29
2023-01-21T07:22:16.923Z,-3.28
2023-01-21T07:24:43.515Z,-3.31
2023-01-21T07:27:10.768Z,-3.29
2023-01-21T07:29:37.648Z,-3.30
2023-01-21T07:32:04.767Z,-3.24
2023-01-21T07:34:31.399Z,-3.20
2023-01-21T07:36:57.991Z,-3.19
2023-01-21T07:39:24.565Z,-3.23
2023-01-21T07:41:51.153Z,-3.07
2023-01-21T07:44:17.795Z,-3.07
2023-01-21T07:46:44.474Z,-3.03
2023-01-21T07:49:12.936Z,-3.07
2023-01-21T07:51:39.521Z,-2.96
2023-01-21T07:54:06.109Z,-2.93
2023-01-21T07:56:32.700Z,-3.09
2023-01-21T07:58:59.333Z,-3.02
2023-01-21T08:01:30.871Z,-2.93
2023-01-21T08:03:58.263Z,-2.94
2023-01-21T08:06:25.009Z,-2.85
2023-01-21T08:08:51.590Z,-2.98
2023-01-21T08:11:18.201Z,-3.00
2023-01-21T08:13:44.811Z,-3.01
2023-01-21T08:16:13.992Z,-3.07
2023-01-21T08:18:40.616Z,-3.00
2023-01-21T08:21:07.188Z,-3.05
2023-01-21T08:23:34.692Z,-3.10
2023-01-21T08:26:04.591Z,-3.03
2023-01-21T08:28:31.287Z,-2.95
2023-01-21T08:31:08.133Z,-2.89
2023-01-21T08:33:34.883Z,-2.95
2023-01-21T08:36:06.163Z,-2.93
2023-01-21T08:38:33.416Z,-2.81
2023-01-21T08:41:00.010Z,-2.67
2023-01-21T08:43:26.717Z,-2.75
2023-01-21T08:45:55.660Z,-2.57
2023-01-21T08:48:22.370Z,-2.73
2023-01-21T08:50:48.996Z,-2.71
2023-01-21T08:53:15.610Z,-2.74
2023-01-21T08:55:42.333Z,-2.71
2023-01-21T08:58:11.597Z,-2.61
2023-01-21T09:00:38.290Z,-2.71
2023-01-21T09:03:04.955Z,-2.79
2023-01-21T09:05:31.551Z,-2.74
2023-01-21T09:07:58.431Z,-2.64
2023-01-21T09:10:43.801Z,-2.60
2023-01-21T09:13:10.432Z,-2.67
2023-01-21T09:15:40.939Z,-2.64
2023-01-21T09:18:07.546Z,-2.10
2023-01-21T09:20:34.278Z,-2.63
2023-01-21T09:23:01.007Z,-2.52
2023-01-21T09:25:27.777Z,-2.51
2023-01-21T09:27:54.393Z,-2.36
2023-01-21T09:30:21.061Z,-2.18
2023-01-21T09:32:47.663Z,-2.28
2023-01-21T09:35:14.518Z,-2.38
2023-01-21T09:37:41.568Z,-2.28
2023-01-21T09:40:14.037Z,-2.24
2023-01-21T09:42:42.661Z,-2.26
2023-01-21T09:45:09.609Z,-2.40
2023-01-21T09:47:38.270Z,-2.24
2023-01-21T09:50:11.006Z,-2.47
2023-01-21T09:52:44.367Z,-2.15
2023-01-21T09:55:20.566Z,-2.21
2023-01-21T09:57:59.135Z,-2.30
2023-01-21T10:00:39.066Z,-2.36
2023-01-21T10:03:08.603Z,-2.37
2023-01-21T10:06:22.675Z,-2.34
2023-01-21T10:09:17.064Z,-2.22
2023-01-21T10:11:48.623Z,-2.21
2023-01-21T10:14:34.054Z,-2.09
2023-01-21T10:17:26.495Z,-2.01
2023-01-21T10:20:05.597Z,-2.14
2023-01-21T10:22:32.181Z,-2.16
2023-01-21T10:25:13.726Z,-2.20
2023-01-21T10:27:40.345Z,-1.98
2023-01-21T10:30:28.700Z,-1.97
2023-01-21T10:32:55.540Z,-2.04
2023-01-21T10:35:50.076Z,-1.95
2023-01-21T10:38:47.106Z,-2.14
2023-01-21T10:41:26.885Z,-1.86
2023-01-21T10:44:05.752Z,-2.09
2023-01-21T10:46:41.141Z,-1.81
2023-01-21T10:49:25.467Z,-2.05
2023-01-21T10:51:58.920Z,-1.89
2023-01-21T10:54:42.083Z,-1.96
2023-01-21T10:57:23.235Z,-1.79
2023-01-21T10:59:49.839Z,-1.51
2023-01-21T11:02:23.530Z,-1.87
2023-01-21T11:04:50.107Z,-1.84
2023-01-21T11:07:18.287Z,-1.84
2023-01-21T11:09:46.188Z,-1.69
2023-01-21T11:12:16.551Z,-1.60
2023-01-21T11:14:46.758Z,-1.70
2023-01-21T11:17:13.998Z,-1.57
2023-01-21T11:19:40.629Z,-1.69
2023-01-21T11:22:12.936Z,-1.86
2023-01-21T11:24:44.253Z,-1.38
2023-01-21T11:27:31.361Z,-1.75
2023-01-21T11:29:57.977Z,-1.79
2023-01-21T11:32:25.868Z,-1.79
2023-01-21T11:34:58.297Z,-1.84
2023-01-21T11:37:26.167Z,-1.72
2023-01-21T11:40:01.042Z,-1.84
2023-01-21T11:42:27.700Z,-1.60
2023-01-21T11:45:05.183Z,-1.54
2023-01-21T11:47:48.182Z,-1.60
2023-01-21T11:50:44.001Z,-1.77
2023-01-21T11:53:14.533Z,-1.69
2023-01-21T11:55:50.912Z,-1.87
2023-01-21T11:58:29.998Z,-1.71
2023-01-21T12:01:00.817Z,-1.79
2023-01-21T12:03:36.751Z,-1.80
2023-01-21T12:06:03.628Z,-1.52
2023-01-21T12:08:31.290Z,-1.88
2023-01-21T12:11:02.021Z,-1.67
2023-01-21T12:13:47.296Z,-1.69
2023-01-21T12:16:23.132Z,-1.73
2023-01-21T12:19:16.286Z,-1.81
2023-01-21T12:21:45.868Z,-1.52
2023-01-21T12:24:40.406Z,-1.59
2023-01-21T12:27:38.102Z,-1.36
2023-01-21T12:30:32.407Z,-1.50
2023-01-21T12:33:12.841Z,-1.41
2023-01-21T12:35:51.853Z,-1.40
2023-01-21T12:38:36.639Z,-1.55
2023-01-21T12:41:10.832Z,-1.65
2023-01-21T12:43:42.495Z,-1.59
2023-01-21T12:46:32.626Z,-1.43
2023-01-21T12:49:07.447Z,-1.73
2023-01-21T12:51:39.922Z,-1.34
2023-01-21T12:54:24.650Z,-1.62
2023-01-21T12:56:57.180Z,-1.51
2023-01-21T12:59:25.300Z,-1.44
2023-01-21T13:02:05.580Z,-1.49
2023-01-21T13:04:54.323Z,-1.41
2023-01-21T13:07:27.200Z,-1.53
2023-01-21T13:10:00.406Z,-1.37
2023-01-21T13:12:27.495Z,-1.39
2023-01-21T13:15:03.163Z,-1.51
2023-01-21T13:17:32.544Z,-1.50
2023-01-21T13:19:59.389Z,-1.45
2023-01-21T13:22:32.005Z,-1.47
2023-01-21T13:25:18.558Z,-1.22
2023-01-21T13:27:59.055Z,-1.23
2023-01-21T13:30:36.713Z,-1.33
2023-01-21T13:33:29.331Z,-1.33
2023-01-21T13:36:18.449Z,-1.44
2023-01-21T13:39:28.275Z,-1.31
2023-01-21T13:42:07.137Z,-1.40
2023-01-21T13:44:39.632Z,-1.39
2023-01-21T13:47:44.562Z,-1.15
2023-01-21T13:50:20.253Z,-1.17
2023-01-21T13:52:50.517Z,-1.38
2023-01-21T13:55:39.254Z,-1.25
2023-01-21T13:58:09.299Z,-1.37
2023-01-21T14:00:44.914Z,-1.42
2023-01-21T14:03:37.521Z,-1.22
2023-01-21T14:06:24.590Z,-1.20
2023-01-21T14:08:52.836Z,-1.16
2023-01-21T14:11:34.507Z,-1.08
2023-01-21T14:14:24.274Z,-1.19
2023-01-21T14:17:18.962Z,-1.27
2023-01-21T14:20:04.565Z,-1.45
2023-01-21T14:22:56.002Z,-1.34
2023-01-21T14:25:46.537Z,-1.41
2023-01-21T14:28:49.765Z,-1.27
2023-01-21T14:31:22.336Z,-1.28
2023-01-21T14:33:59.510Z,-1.25
2023-01-21T14:37:14.102Z,-1.25
2023-01-21T14:39:43.685Z,-1.32
2023-01-21T14:42:12.571Z,-1.48
2023-01-21T14:44:59.228Z,-1.43
2023-01-21T14:47:28.800Z,-1.00
2023-01-21T14:49:55.842Z,-1.41
2023-01-21T14:52:32.828Z,-1.36
2023-01-21T14:54:59.661Z,-1.25
2023-01-21T14:57:29.703Z,-1.09
2023-01-21T15:00:29.566Z,-1.19
2023-01-21T15:03:09.177Z,-1.26
2023-01-21T15:05:36.517Z,-1.17
2023-01-21T15:08:06.399Z,-1.16
2023-01-21T15:10:37.600Z,-1.04
2023-01-21T15:13:28.463Z,-1.01
2023-01-21T15:16:05.792Z,-1.04
2023-01-21T15:18:48.540Z,-1.26
2023-01-21T15:21:43.319Z,-1.13
2023-01-21T15:24:35.853Z,-1.14
2023-01-21T15:27:23.637Z,-1.08
2023-01-21T15:29:56.842Z,-1.07
2023-01-21T15:32:36.127Z,-1.15
2023-01-21T15:35:23.293Z,-1.29
2023-01-21T15:37:59.348Z,-1.02
2023-01-21T15:40:27.737Z,-1.36
2023-01-21T15:42:55.272Z,-1.09
2023-01-21T15:45:43.457Z,-1.15
2023-01-21T15:48:33.123Z,-1.10
2023-01-21T15:51:25.408Z,-0.99
2023-01-21T15:54:07.101Z,-1.13
2023-01-21T15:56:56.118Z,-0.95
2023-01-21T15:59:28.666Z,-1.22
2023-01-21T16:02:15.611Z,-1.10
2023-01-21T16:05:11.947Z,-1.20
2023-01-21T16:07:53.938Z,-1.33
2023-01-21T16:10:23.638Z,-1.12
2023-01-21T16:13:18.448Z,-1.15
2023-01-21T16:16:12.752Z,-1.09
2023-01-21T16:18:59.355Z,-1.22
2023-01-21T16:21:35.138Z,-1.27
2023-01-21T16:24:05.657Z,-1.20
2023-01-21T16:26:33.192Z,-1.13
2023-01-21T16:28:59.940Z,-1.27
2023-01-21T16:31:26.721Z,-1.03
2023-01-21T16:33:54.033Z,-1.03
2023-01-21T16:36:20.665Z,-1.11
2023-01-21T16:38:47.360Z,-1.16
2023-01-21T16:41:13.865Z,-1.16
2023-01-21T16:43:48.745Z,-1.22
2023-01-21T16:46:16.823Z,-1.03
2023-01-21T16:48:43.459Z,-1.12
2023-01-21T16:51:23.768Z,-1.04
2023-01-21T16:53:54.046Z,-1.02
2023-01-21T16:56:28.608Z,-0.97
2023-01-21T16:58:56.208Z,-1.05
2023-01-21T17:01:24.019Z,-1.06
2023-01-21T17:03:50.643Z,-1.08
2023-01-21T17:06:28.457Z,-0.92
2023-01-21T17:08:58.753Z,-0.96
2023-01-21T17:11:25.524Z,-0.96
2023-01-21T17:13:52.135Z,-1.04
2023-01-21T17:16:29.669Z,-0.88
2023-01-21T17:19:00.425Z,-0.80
2023-01-21T17:21:48.189Z,-0.98
2023-01-21T17:24:22.029Z,-0.76
2023-01-21T17:26:50.249Z,-0.74
2023-01-21T17:29:28.282Z,-0.79
2023-01-21T17:31:56.534Z,-0.87
2023-01-21T17:34:30.537Z,-0.86
2023-01-21T17:36:57.328Z,-0.86
2023-01-21T17:39:49.140Z,-0.89
2023-01-21T17:42:20.719Z,-0.65
2023-01-21T17:44:54.801Z,-0.80
2023-01-21T17:47:29.340Z,-0.82
2023-01-21T17:50:21.448Z,-1.01
2023-01-21T17:52:57.126Z,-0.90
2023-01-21T17:55:26.750Z,-0.91
2023-01-21T17:57:54.533Z,-0.90
2023-01-21T18:00:38.060Z,-0.81
2023-01-21T18:03:04.837Z,-0.74
2023-01-21T18:05:31.449Z,-0.95
2023-01-21T18:07:58.197Z,-0.86
2023-01-21T18:10:26.458Z,-0.80
2023-01-21T18:12:54.523Z,-0.83
2023-01-21T18:15:21.179Z,-0.80
2023-01-21T18:17:49.553Z,-0.85
2023-01-21T18:20:26.283Z,-0.80
2023-01-21T18:22:53.398Z,-0.87
2023-01-21T18:25:20.238Z,-0.81
2023-01-21T18:27:51.743Z,-0.89
2023-01-21T18:30:19.643Z,-0.81
2023-01-21T18:32:46.395Z,-0.85
2023-01-21T18:35:19.899Z,-0.79
2023-01-21T18:37:47.023Z,-0.78
2023-01-21T18:40:18.433Z,-0.73
2023-01-21T18:42:45.895Z,-0.74
2023-01-21T18:45:30.735Z,-0.74
2023-01-21T18:47:57.591Z,-0.75
2023-01-21T18:50:25.693Z,-0.77
2023-01-21T18:52:52.564Z,-0.82
2023-01-21T18:55:20.397Z,-0.76
2023-01-21T18:57:48.496Z,-0.75
2023-01-21T19:00:22.811Z,-0.75
2023-01-21T19:02:50.469Z,-0.68
2023-01-21T19:05:17.331Z,-0.89
2023-01-21T19:07:44.003Z,-0.86
2023-01-21T19:10:13.603Z,-0.88
2023-01-21T19:12:40.306Z,-0.82
2023-01-21T19:15:10.296Z,-0.86
2023-01-21T19:17:38.305Z,-0.87
2023-01-21T19:20:05.250Z,-0.89
2023-01-21T19:22:31.904Z,-0.80
2023-01-21T19:24:58.505Z,-0.86
2023-01-21T19:27:33.405Z,-0.86
2023-01-21T19:29:59.980Z,-0.87
2023-01-21T19:32:26.599Z,-0.86
2023-01-21T19:34:53.256Z,-0.84
2023-01-21T19:37:21.487Z,-0.81
2023-01-21T19:39:48.084Z,-0.86
2023-01-21T19:42:15.417Z,-0.86
2023-01-21T19:44:42.261Z,-0.90
2023-01-21T19:47:16.410Z,-0.90
2023-01-21T19:49:43.085Z,-0.75
2023-01-21T19:52:11.699Z,-0.69
2023-01-21T19:54:38.280Z,-0.78
2023-01-21T19:57:04.880Z,-0.73
2023-01-21T19:59:31.579Z,-0.83
2023-01-21T20:01:58.279Z,-0.80
2023-01-21T20:04:24.922Z,-0.81
2023-01-21T20:06:51.504Z,-0.79
2023-01-21T20:09:19.246Z,-0.85
2023-01-21T20:11:45.973Z,-0.81
2023-01-21T20:14:12.665Z,-0.73
2023-01-21T20:16:44.289Z,-0.70
2023-01-21T20:19:15.805Z,-0.78
2023-01-21T20:21:55.026Z,-0.78
2023-01-21T20:24:30.096Z,-0.78
2023-01-21T20:26:57.099Z,-0.80
2023-01-21T20:29:23.737Z,-0.82
2023-01-21T20:31:51.926Z,-0.76
2023-01-21T20:34:18.585Z,-0.88
2023-01-21T20:36:48.415Z,-0.66
2023-01-21T20:39:15.126Z,-0.81
2023-01-21T20:41:43.390Z,-0.82
2023-01-21T20:44:10.522Z,-0.85
2023-01-21T20:46:37.109Z,-0.81
2023-01-21T20:49:03.802Z,-0.79
2023-01-21T20:51:30.511Z,-0.83
2023-01-21T20:53:57.166Z,-0.78
2023-01-21T20:56:33.118Z,-0.83
2023-01-21T20:58:59.707Z,-0.86
2023-01-21T21:01:27.055Z,-0.84
2023-01-21T21:03:53.750Z,-0.80
2023-01-21T21:06:22.093Z,-0.82
2023-01-21T21:08:49.383Z,-0.80
2023-01-21T21:11:16.741Z,-0.84
2023-01-21T21:13:43.711Z,-0.77
2023-01-21T21:16:22.195Z,-0.78
2023-01-21T21:18:48.973Z,-0.70
2023-01-21T21:21:16.241Z,-0.79
2023-01-21T21:23:46.565Z,-0.73
2023-01-21T21:26:19.982Z,-0.73
2023-01-21T21:28:46.900Z,-0.75
2023-01-21T21:31:14.518Z,-0.61
2023-01-21T21:33:41.218Z,-0.69
2023-01-21T21:36:14.766Z,-0.78
2023-01-21T21:38:41.465Z,-0.76
2023-01-21T21:41:32.829Z,-0.78
2023-01-21T21:43:59.547Z,-0.77
2023-01-21T21:46:44.721Z,-0.74
2023-01-21T21:49:11.683Z,-0.80
2023-01-21T21:51:38.352Z,-0.81
2023-01-21T21:54:07.767Z,-0.76
2023-01-21T21:56:35.147Z,-0.81
2023-01-21T21:59:01.755Z,-0.80
2023-01-21T22:01:30.492Z,-0.77
2023-01-21T22:04:00.391Z,-0.75
2023-01-21T22:06:26.994Z,-0.74
2023-01-21T22:08:54.396Z,-0.76
2023-01-21T22:11:21.941Z,-0.71
2023-01-21T22:13:50.240Z,-0.67
2023-01-21T22:16:27.751Z,-0.79
2023-01-21T22:18:54.730Z,-0.76
2023-01-21T22:21:23.159Z,-0.75
2023-01-21T22:23:50.083Z,-0.78
2023-01-21T22:26:18.191Z,-0.81
2023-01-21T22:28:44.897Z,-0.82
2023-01-21T22:31:16.639Z,-0.73
2023-01-21T22:33:43.462Z,-0.82
2023-01-21T22:36:11.944Z,-0.81
2023-01-21T22:38:40.613Z,-0.71
2023-01-21T22:41:07.541Z,-0.79
2023-01-21T22:43:34.208Z,-0.85
2023-01-21T22:46:01.073Z,-0.88
2023-01-21T22:48:27.764Z,-0.83
2023-01-21T22:50:55.822Z,-0.86
2023-01-21T22:53:22.817Z,-0.76
2023-01-21T22:55:56.321Z,-0.75
2023-01-21T22:58:23.381Z,-0.75
2023-01-21T23:00:50.188Z,-0.83
2023-01-21T23:03:16.931Z,-0.84
2023-01-21T23:05:43.620Z,-0.78
2023-01-21T23:08:10.620Z,-0.81
2023-01-21T23:10:37.201Z,-0.76
2023-01-21T23:13:03.803Z,-0.81
2023-01-21T23:15:30.527Z,-0.78
2023-01-21T23:17:57.144Z,-0.72
2023-01-21T23:20:28.748Z,-0.69
2023-01-21T23:22:56.457Z,-0.75
2023-01-21T23:25:23.043Z,-0.77
2023-01-21T23:27:49.750Z,-0.77
2023-01-21T23:30:16.956Z,-0.75
2023-01-21T23:32:43.664Z,-0.79
2023-01-21T23:35:10.239Z,-0.74
2023-01-21T23:37:37.495Z,-0.74
2023-01-21T23:40:05.270Z,-0.78
2023-01-21T23:42:32.213Z,-0.71
2023-01-21T23:44:59.022Z,-0.76
2023-01-21T23:47:25.706Z,-0.79
2023-01-21T23:49:52.274Z,-0.83
2023-01-21T23:52:18.870Z,-0.81
2023-01-21T23:54:45.534Z,-0.75
2023-01-21T23:57:12.283Z,-0.78
2023-01-21T23:59:38.936Z,-0.81
